This is the latest recevied weather packets stored in our database for station/object VA2EYZ-13. If no packets are shown the sender has not sent any weather packets the latest 10 day(s).
| Time | Temp. | Humidity | Pressure | Rain* | Wind** | Luminosity | Snow |
|---|---|---|---|---|---|---|---|
| 1788187251 | 18.89° C | 89% | 1021.1 hPa | - | - | - | - |
| 1788186053 | 18.33° C | 89% | 1021.1 hPa | - | - | - | - |
| 1788184603 | 17.22° C | 94% | 1021 hPa | - | - | - | - |
| 1788183218 | 16.67° C | 94% | 1021 hPa | - | - | - | - |
| 1788182526 | 17.22° C | 94% | 1021.5 hPa | - | - | - | - |
| 1788181683 | 16.67° C | 96% | 1021 hPa | - | - | - | - |
| 1788181349 | 16.11° C | 96% | 1021 hPa | - | - | - | - |
| 1788181024 | 16.11° C | 97% | 1021.7 hPa | - | - | - | - |
| 1788178611 | 13.89° C | 97% | 1021 hPa | - | - | - | - |
| 1788178190 | 13.89° C | 97% | 1021 hPa | - | - | - | - |
| 1788176570 | 13.33° C | 96% | 1021 hPa | - | - | - | - |
| 1788175793 | 13.33° C | 97% | 1021 hPa | - | - | - | - |
| 1788175131 | 12.78° C | 98% | 1021 hPa | - | - | - | - |
| 1788174764 | 12.22° C | 98% | 1020 hPa | - | - | - | - |
| 1788173481 | 11.67° C | 98% | 1020 hPa | - | - | - | - |
| 1788172688 | 11.67° C | 98% | 1020.5 hPa | - | - | - | - |
| 1788171845 | 10.56° C | 97% | 1020.4 hPa | - | - | - | - |
| 1788171226 | 10.56° C | 98% | 1020.4 hPa | - | - | - | - |
| 1788170626 | 10.56° C | 98% | 1020.4 hPa | - | - | - | - |
| 1788170024 | 10.56° C | 98% | 1020.4 hPa | - | - | - | - |
| 1788169124 | 11.11° C | 98% | 1020.4 hPa | - | - | - | - |
| 1788166752 | 11.11° C | 98% | 1020 hPa | - | - | - | - |
| 1788165175 | 11.11° C | 97% | 1020.2 hPa | - | - | - | - |
| 1788163419 | 11.11° C | 97% | 1020.1 hPa | - | - | - | - |
| 1788162682 | 11.67° C | 97% | 1020.1 hPa | - | - | - | - |
* Rain since midnight (hover to see other rain measurements)
** Current wind speed in m/s (hover to see current wind gust speed)